createdAt,value
2023-04-17T00:01:13.012Z,8.50
2023-04-17T00:03:41.138Z,8.40
2023-04-17T00:06:09.417Z,8.40
2023-04-17T00:08:38.925Z,8.40
2023-04-17T00:11:08.830Z,8.40
2023-04-17T00:13:37.388Z,8.40
2023-04-17T00:16:05.463Z,8.30
2023-04-17T00:18:33.380Z,8.30
2023-04-17T00:21:01.169Z,8.30
2023-04-17T00:23:29.116Z,8.30
2023-04-17T00:25:58.400Z,8.30
2023-04-17T00:28:26.304Z,8.20
2023-04-17T00:30:54.164Z,8.20
2023-04-17T00:33:22.089Z,8.20
2023-04-17T00:35:49.876Z,8.10
2023-04-17T00:38:17.809Z,8.10
2023-04-17T00:40:46.239Z,8.10
2023-04-17T00:43:15.922Z,8.00
2023-04-17T00:45:44.104Z,8.00
2023-04-17T00:48:13.180Z,8.00
2023-04-17T00:50:41.468Z,8.00
2023-04-17T00:53:09.433Z,8.00
2023-04-17T00:55:40.649Z,8.00
2023-04-17T00:58:08.775Z,8.00
2023-04-17T01:00:37.958Z,8.00
2023-04-17T01:03:06.278Z,8.00
2023-04-17T01:05:35.413Z,7.90
2023-04-17T01:08:03.346Z,7.90
2023-04-17T01:10:31.218Z,7.90
2023-04-17T01:13:03.488Z,7.90
2023-04-17T01:15:32.325Z,7.90
2023-04-17T01:18:01.649Z,7.90
2023-04-17T01:20:31.129Z,7.90
2023-04-17T01:22:59.291Z,7.90
2023-04-17T01:25:29.525Z,7.90
2023-04-17T01:27:57.767Z,7.90
2023-04-17T01:30:27.227Z,7.90
2023-04-17T01:33:07.638Z,7.90
2023-04-17T01:35:35.577Z,7.90
2023-04-17T01:38:03.565Z,7.80
2023-04-17T01:40:33.224Z,7.90
2023-04-17T01:43:01.024Z,7.80
2023-04-17T01:45:29.239Z,7.80
2023-04-17T01:47:57.054Z,7.80
2023-04-17T01:50:25.216Z,7.80
2023-04-17T01:52:53.046Z,7.80
2023-04-17T01:55:21.128Z,7.80
2023-04-17T01:57:53.213Z,7.70
2023-04-17T02:00:22.775Z,7.70
2023-04-17T02:02:51.681Z,7.70
2023-04-17T02:05:19.788Z,7.70
2023-04-17T02:07:50.266Z,7.70
2023-04-17T02:10:18.276Z,7.70
2023-04-17T02:12:46.096Z,7.70
2023-04-17T02:15:15.583Z,7.70
2023-04-17T02:17:43.438Z,7.70
2023-04-17T02:20:12.820Z,7.70
2023-04-17T02:22:43.039Z,7.70
2023-04-17T02:25:11.191Z,7.70
2023-04-17T02:27:39.337Z,7.70
2023-04-17T02:30:09.783Z,7.70
2023-04-17T02:32:39.033Z,7.70
2023-04-17T02:35:08.581Z,7.70
2023-04-17T02:37:36.692Z,7.70
2023-04-17T02:40:06.987Z,7.70
2023-04-17T02:42:34.953Z,7.70
2023-04-17T02:45:05.058Z,7.70
2023-04-17T02:47:32.925Z,7.70
2023-04-17T02:50:02.735Z,7.70
2023-04-17T02:52:35.966Z,7.60
2023-04-17T02:55:04.405Z,7.60
2023-04-17T02:57:32.433Z,7.60
2023-04-17T03:00:01.376Z,7.60
2023-04-17T03:02:30.984Z,7.50
2023-04-17T03:05:02.043Z,7.50
2023-04-17T03:07:31.425Z,7.50
2023-04-17T03:09:59.424Z,7.40
2023-04-17T03:12:27.401Z,7.40
2023-04-17T03:14:55.403Z,7.40
2023-04-17T03:17:23.276Z,7.40
2023-04-17T03:19:51.425Z,7.40
2023-04-17T03:22:19.515Z,7.40
2023-04-17T03:24:49.990Z,7.40
2023-04-17T03:27:24.160Z,7.40
2023-04-17T03:29:56.171Z,7.40
2023-04-17T03:32:26.865Z,7.30
2023-04-17T03:34:54.682Z,7.20
2023-04-17T03:37:22.680Z,7.20
2023-04-17T03:39:51.996Z,7.20
2023-04-17T03:42:19.897Z,7.30
2023-04-17T03:44:47.866Z,7.20
2023-04-17T03:47:15.763Z,7.20
2023-04-17T03:49:43.668Z,7.30
2023-04-17T03:52:11.816Z,7.20
2023-04-17T03:54:39.891Z,7.30
2023-04-17T03:57:09.164Z,7.20
2023-04-17T03:59:37.123Z,7.30
2023-04-17T04:02:05.087Z,7.30
2023-04-17T04:04:35.855Z,7.30
2023-04-17T04:07:10.261Z,7.30
2023-04-17T04:09:38.222Z,7.30
2023-04-17T04:12:09.349Z,7.40
2023-04-17T04:14:42.171Z,7.40
2023-04-17T04:17:11.430Z,7.40
2023-04-17T04:19:40.414Z,7.40
2023-04-17T04:22:08.541Z,7.40
2023-04-17T04:24:42.711Z,7.40
2023-04-17T04:27:18.192Z,7.40
2023-04-17T04:29:48.712Z,7.40
2023-04-17T04:32:18.523Z,7.40
2023-04-17T04:34:47.962Z,7.40
2023-04-17T04:37:16.292Z,7.30
2023-04-17T04:39:47.225Z,7.30
2023-04-17T04:42:21.898Z,7.30
2023-04-17T04:44:59.699Z,7.30
2023-04-17T04:47:30.785Z,7.20
2023-04-17T04:49:58.821Z,7.30
2023-04-17T04:52:27.405Z,7.30
2023-04-17T04:55:00.666Z,7.40
2023-04-17T04:57:32.051Z,7.40
2023-04-17T05:00:02.558Z,7.40
2023-04-17T05:02:37.018Z,7.40
2023-04-17T05:05:09.532Z,7.50
2023-04-17T05:07:39.041Z,7.50
2023-04-17T05:10:11.234Z,7.60
2023-04-17T05:12:45.342Z,7.60
2023-04-17T05:15:14.963Z,7.70
2023-04-17T05:17:43.196Z,7.70
2023-04-17T05:20:13.147Z,7.70
2023-04-17T05:22:48.259Z,7.70
2023-04-17T05:25:17.255Z,7.80
2023-04-17T05:27:47.123Z,7.90
2023-04-17T05:30:16.236Z,8.00
2023-04-17T05:32:48.409Z,8.00
2023-04-17T05:35:27.441Z,8.10
2023-04-17T05:37:56.757Z,8.20
2023-04-17T05:40:24.749Z,8.20
2023-04-17T05:42:53.979Z,8.30
2023-04-17T05:45:24.161Z,8.40
2023-04-17T05:47:53.448Z,8.40
2023-04-17T05:50:21.938Z,8.30
2023-04-17T05:52:50.142Z,8.30
2023-04-17T05:55:20.049Z,8.30
2023-04-17T05:57:55.641Z,8.30
2023-04-17T06:00:26.043Z,8.40
2023-04-17T06:03:01.320Z,8.40
2023-04-17T06:05:35.225Z,8.50
2023-04-17T06:08:03.830Z,8.60
2023-04-17T06:10:33.520Z,8.70
2023-04-17T06:13:03.888Z,8.70
2023-04-17T06:15:32.261Z,8.70
2023-04-17T06:18:00.448Z,8.80
2023-04-17T06:20:28.433Z,8.90
2023-04-17T06:22:56.933Z,8.90
2023-04-17T06:25:24.840Z,9.00
2023-04-17T06:27:52.731Z,9.10
2023-04-17T06:30:22.035Z,9.30
2023-04-17T06:32:53.360Z,9.50
2023-04-17T06:35:22.004Z,9.60
2023-04-17T06:38:01.130Z,9.60
2023-04-17T06:40:29.048Z,9.90
2023-04-17T06:42:56.935Z,10.10
2023-04-17T06:45:30.334Z,10.20
2023-04-17T06:47:58.242Z,10.50
2023-04-17T06:50:26.369Z,10.60
2023-04-17T06:52:54.256Z,10.60
2023-04-17T06:55:22.028Z,10.50
2023-04-17T06:57:49.906Z,10.50
2023-04-17T07:00:18.493Z,10.50
2023-04-17T07:02:48.312Z,10.80
2023-04-17T07:05:16.588Z,11.10
2023-04-17T07:07:44.482Z,11.30
2023-04-17T07:10:15.548Z,11.40
2023-04-17T07:12:43.442Z,11.20
2023-04-17T07:15:11.795Z,11.40
2023-04-17T07:17:39.742Z,11.60
2023-04-17T07:20:10.283Z,11.70
2023-04-17T07:22:38.186Z,11.70
2023-04-17T07:25:07.316Z,11.80
2023-04-17T07:27:35.425Z,11.80
2023-04-17T07:30:03.255Z,11.80
2023-04-17T07:32:31.139Z,11.90
2023-04-17T07:34:58.940Z,12.10
2023-04-17T07:37:28.220Z,12.20
2023-04-17T07:39:55.982Z,12.60
2023-04-17T07:42:23.993Z,12.60
2023-04-17T07:44:51.917Z,12.60
2023-04-17T07:47:19.914Z,12.90
2023-04-17T07:49:48.902Z,13.10
2023-04-17T07:52:17.970Z,13.00
2023-04-17T07:54:47.256Z,13.10
2023-04-17T07:57:18.071Z,13.20
2023-04-17T07:59:46.531Z,13.20
2023-04-17T08:02:19.521Z,13.10
2023-04-17T08:04:48.692Z,13.10
2023-04-17T08:07:18.349Z,13.30
2023-04-17T08:09:47.571Z,13.50
2023-04-17T08:12:15.386Z,13.50
2023-04-17T08:14:43.727Z,13.70
2023-04-17T08:17:11.900Z,13.30
2023-04-17T08:19:39.800Z,13.30
2023-04-17T08:22:08.042Z,13.50
2023-04-17T08:24:35.925Z,13.50
2023-04-17T08:27:06.039Z,13.50
2023-04-17T08:29:33.886Z,13.50
2023-04-17T08:32:13.853Z,13.70
2023-04-17T08:34:43.055Z,13.70
2023-04-17T08:37:10.895Z,13.70
2023-04-17T08:39:38.769Z,13.60
2023-04-17T08:42:14.617Z,13.50
2023-04-17T08:44:48.609Z,13.70
2023-04-17T08:47:18.924Z,13.90
2023-04-17T08:49:47.178Z,14.00
2023-04-17T08:52:15.530Z,14.10
2023-04-17T08:54:43.523Z,14.00
2023-04-17T08:57:12.674Z,13.70
2023-04-17T08:59:43.452Z,13.80
2023-04-17T09:02:11.508Z,13.70
2023-04-17T09:04:41.759Z,13.80
2023-04-17T09:07:11.877Z,13.90
2023-04-17T09:09:53.044Z,14.00
2023-04-17T09:12:25.086Z,14.20
2023-04-17T09:14:53.270Z,14.20
2023-04-17T09:17:23.721Z,14.30
2023-04-17T09:20:09.780Z,14.20
2023-04-17T09:22:41.218Z,14.50
2023-04-17T09:25:17.473Z,14.40
2023-04-17T09:27:46.980Z,14.20
2023-04-17T09:30:15.330Z,14.20
2023-04-17T09:32:43.336Z,14.30
2023-04-17T09:35:11.708Z,14.50
2023-04-17T09:37:50.456Z,14.60
2023-04-17T09:40:18.941Z,14.60
2023-04-17T09:43:00.231Z,14.40
2023-04-17T09:45:33.189Z,14.00
2023-04-17T09:48:01.297Z,13.90
2023-04-17T09:50:29.610Z,13.80
2023-04-17T09:52:58.650Z,14.10
2023-04-17T09:55:29.377Z,14.30
2023-04-17T09:58:00.360Z,14.50
2023-04-17T10:00:29.394Z,14.40
2023-04-17T10:02:59.449Z,14.50
2023-04-17T10:05:29.792Z,14.60
2023-04-17T10:07:58.019Z,14.70
2023-04-17T10:10:28.711Z,14.80
2023-04-17T10:13:00.609Z,15.00
2023-04-17T10:15:29.410Z,15.10
2023-04-17T10:18:17.331Z,15.10
2023-04-17T10:20:45.612Z,15.10
2023-04-17T10:23:31.503Z,15.10
2023-04-17T10:26:38.785Z,15.20
2023-04-17T10:29:08.091Z,15.30
2023-04-17T10:32:28.623Z,15.40
2023-04-17T10:34:58.148Z,15.40
2023-04-17T10:37:56.364Z,15.70
2023-04-17T10:40:25.845Z,15.30
2023-04-17T10:43:08.162Z,15.10
2023-04-17T10:45:57.582Z,15.20
2023-04-17T10:48:28.196Z,15.00
2023-04-17T10:50:57.250Z,15.00
2023-04-17T10:53:41.748Z,14.80
2023-04-17T10:56:11.275Z,14.90
2023-04-17T10:58:40.461Z,15.00
2023-04-17T11:01:12.674Z,15.20
2023-04-17T11:03:42.161Z,15.00
2023-04-17T11:06:10.265Z,15.10
2023-04-17T11:08:38.159Z,15.00
2023-04-17T11:11:06.147Z,15.00
2023-04-17T11:13:35.547Z,14.80
2023-04-17T11:16:04.944Z,14.70
2023-04-17T11:18:34.205Z,14.80
2023-04-17T11:21:02.273Z,14.70
2023-04-17T11:23:34.447Z,14.50
2023-04-17T11:26:02.470Z,14.80
2023-04-17T11:28:30.330Z,14.70
2023-04-17T11:30:58.262Z,14.90
2023-04-17T11:33:26.338Z,14.80
2023-04-17T11:35:55.776Z,15.00
2023-04-17T11:38:24.441Z,14.90
2023-04-17T11:40:54.061Z,14.90
2023-04-17T11:43:23.560Z,14.80
2023-04-17T11:45:53.427Z,14.50
2023-04-17T11:48:23.503Z,14.50
2023-04-17T11:50:57.482Z,14.40
2023-04-17T11:53:25.947Z,14.30
2023-04-17T11:56:12.122Z,14.10
2023-04-17T11:58:47.473Z,14.20
2023-04-17T12:01:15.831Z,14.10
2023-04-17T12:03:45.407Z,14.10
2023-04-17T12:06:15.485Z,13.90
2023-04-17T12:08:45.632Z,14.00
2023-04-17T12:11:17.976Z,13.90
2023-04-17T12:13:46.043Z,13.80
2023-04-17T12:16:13.894Z,13.80
2023-04-17T12:18:41.832Z,13.90
2023-04-17T12:21:09.630Z,13.90
2023-04-17T12:23:38.896Z,13.90
2023-04-17T12:26:06.921Z,13.80
2023-04-17T12:28:34.890Z,13.60
2023-04-17T12:31:03.889Z,13.50
2023-04-17T12:33:31.913Z,13.60
2023-04-17T12:35:59.970Z,13.40
2023-04-17T12:38:27.935Z,13.50
2023-04-17T12:40:57.180Z,13.40
2023-04-17T12:43:25.283Z,13.40
2023-04-17T12:45:54.272Z,13.30
2023-04-17T12:48:22.261Z,13.20
2023-04-17T12:50:50.214Z,13.30
2023-04-17T12:53:18.272Z,13.30
2023-04-17T12:55:46.091Z,13.20
2023-04-17T12:58:15.402Z,13.20
2023-04-17T13:00:44.568Z,13.00
2023-04-17T13:03:12.758Z,13.00
2023-04-17T13:05:40.972Z,13.10
2023-04-17T13:08:14.679Z,13.20
2023-04-17T13:10:42.726Z,13.30
2023-04-17T13:13:11.056Z,13.30
2023-04-17T13:15:41.913Z,13.20
2023-04-17T13:18:10.488Z,13.20
2023-04-17T13:20:38.512Z,13.30
2023-04-17T13:23:06.320Z,13.10
2023-04-17T13:25:34.259Z,13.20
2023-04-17T13:28:02.141Z,13.20
2023-04-17T13:30:32.163Z,13.20
2023-04-17T13:33:01.495Z,13.10
2023-04-17T13:35:29.412Z,13.00
2023-04-17T13:38:00.789Z,13.00
2023-04-17T13:40:28.799Z,13.20
2023-04-17T13:42:56.560Z,13.20
2023-04-17T13:45:24.481Z,13.10
2023-04-17T13:47:52.318Z,13.10
2023-04-17T13:50:21.824Z,13.00
2023-04-17T13:52:49.699Z,13.00
2023-04-17T13:55:17.634Z,13.30
2023-04-17T13:57:45.569Z,13.30
2023-04-17T14:00:15.175Z,13.30
2023-04-17T14:02:43.191Z,13.30
2023-04-17T14:05:11.419Z,13.20
2023-04-17T14:07:40.749Z,13.20
2023-04-17T14:10:10.453Z,13.30
2023-04-17T14:12:38.240Z,13.30
2023-04-17T14:15:07.554Z,13.30
2023-04-17T14:17:37.891Z,13.20
2023-04-17T14:20:07.010Z,13.00
2023-04-17T14:22:34.823Z,13.00
2023-04-17T14:25:04.294Z,12.90
2023-04-17T14:27:32.131Z,12.90
2023-04-17T14:30:01.342Z,12.70
2023-04-17T14:32:29.653Z,12.70
2023-04-17T14:34:57.490Z,12.80
2023-04-17T14:37:25.365Z,12.70
2023-04-17T14:39:53.184Z,12.70
2023-04-17T14:42:22.461Z,12.60
2023-04-17T14:44:50.218Z,12.60
2023-04-17T14:47:18.188Z,12.50
2023-04-17T14:49:46.204Z,12.60
2023-04-17T14:52:14.119Z,12.60
2023-04-17T14:54:41.898Z,12.70
2023-04-17T14:57:09.751Z,12.60
2023-04-17T14:59:38.950Z,12.50
2023-04-17T15:02:07.450Z,12.40
2023-04-17T15:04:35.516Z,12.40
2023-04-17T15:07:04.724Z,12.40
2023-04-17T15:09:32.503Z,12.50
2023-04-17T15:12:00.749Z,12.40
2023-04-17T15:14:29.778Z,12.40
2023-04-17T15:17:01.469Z,12.50
2023-04-17T15:19:29.437Z,12.50
2023-04-17T15:21:57.243Z,12.60
2023-04-17T15:24:25.265Z,12.50
2023-04-17T15:26:53.052Z,12.20
2023-04-17T15:29:21.652Z,12.20
2023-04-17T15:31:49.552Z,12.10
2023-04-17T15:34:18.881Z,12.10
2023-04-17T15:36:48.827Z,12.10
2023-04-17T15:39:16.699Z,12.00
2023-04-17T15:41:44.585Z,12.00
2023-04-17T15:44:12.527Z,12.00
2023-04-17T15:46:40.473Z,12.00
2023-04-17T15:49:09.419Z,12.10
2023-04-17T15:51:40.921Z,12.00
2023-04-17T15:54:11.656Z,11.90
2023-04-17T15:56:39.858Z,11.80
2023-04-17T15:59:07.656Z,11.70
2023-04-17T16:01:35.503Z,11.60
2023-04-17T16:04:03.566Z,11.60
2023-04-17T16:06:32.406Z,11.70
2023-04-17T16:09:01.851Z,11.80
2023-04-17T16:11:29.922Z,11.70
2023-04-17T16:13:57.733Z,11.50
2023-04-17T16:16:25.593Z,11.50
2023-04-17T16:18:53.504Z,11.60
2023-04-17T16:21:21.368Z,11.50
2023-04-17T16:23:49.396Z,11.50
2023-04-17T16:26:18.708Z,11.40
2023-04-17T16:28:46.731Z,11.50
2023-04-17T16:31:16.406Z,11.40
2023-04-17T16:33:45.092Z,11.40
2023-04-17T16:36:12.955Z,11.50
2023-04-17T16:38:40.979Z,11.50
2023-04-17T16:41:08.940Z,11.50
2023-04-17T16:43:38.248Z,11.40
2023-04-17T16:46:18.278Z,11.40
2023-04-17T16:48:46.633Z,11.30
2023-04-17T16:51:14.547Z,11.20
2023-04-17T16:53:42.580Z,11.10
2023-04-17T16:56:10.630Z,11.00
2023-04-17T16:58:40.706Z,10.90
2023-04-17T17:01:08.718Z,10.90
2023-04-17T17:03:38.440Z,10.80
2023-04-17T17:06:07.006Z,10.80
2023-04-17T17:08:34.798Z,10.70
2023-04-17T17:11:03.526Z,10.70
2023-04-17T17:13:31.555Z,10.50
2023-04-17T17:16:00.844Z,10.50
2023-04-17T17:18:28.752Z,10.50
2023-04-17T17:20:58.501Z,10.30
2023-04-17T17:23:26.684Z,10.30
2023-04-17T17:25:54.544Z,10.20
2023-04-17T17:28:22.475Z,10.10
2023-04-17T17:30:50.283Z,10.00
2023-04-17T17:33:19.483Z,10.00
2023-04-17T17:35:47.272Z,9.90
2023-04-17T17:38:15.165Z,9.90
2023-04-17T17:40:43.011Z,9.90
2023-04-17T17:43:11.528Z,9.80
2023-04-17T17:45:39.548Z,9.80
2023-04-17T17:48:09.540Z,9.70
2023-04-17T17:50:38.713Z,9.60
2023-04-17T17:53:06.563Z,9.60
2023-04-17T17:55:37.300Z,9.50
2023-04-17T17:58:05.624Z,9.50
2023-04-17T18:00:34.109Z,9.40
2023-04-17T18:03:02.513Z,9.20
2023-04-17T18:05:30.503Z,9.20
2023-04-17T18:07:59.707Z,9.20
2023-04-17T18:10:27.575Z,9.20
2023-04-17T18:12:55.405Z,9.10
2023-04-17T18:15:23.343Z,9.10
2023-04-17T18:17:51.614Z,9.00
2023-04-17T18:20:19.676Z,9.00
2023-04-17T18:22:47.608Z,8.90
2023-04-17T18:25:17.042Z,8.80
2023-04-17T18:27:45.124Z,8.80
2023-04-17T18:30:15.077Z,8.70
2023-04-17T18:32:43.056Z,8.60
2023-04-17T18:35:11.471Z,8.60
2023-04-17T18:37:40.165Z,8.50
2023-04-17T18:40:10.397Z,8.40
2023-04-17T18:42:41.145Z,8.20
2023-04-17T18:45:13.488Z,8.20
2023-04-17T18:47:41.372Z,8.20
2023-04-17T18:50:10.894Z,8.10
2023-04-17T18:52:41.554Z,8.00
2023-04-17T18:55:11.446Z,8.00
2023-04-17T18:57:41.005Z,8.00
2023-04-17T19:00:09.889Z,7.90
2023-04-17T19:02:37.952Z,8.00
2023-04-17T19:05:06.871Z,7.80
2023-04-17T19:07:34.705Z,7.80
2023-04-17T19:10:02.550Z,7.70
2023-04-17T19:12:30.480Z,7.70
2023-04-17T19:14:59.675Z,7.70
2023-04-17T19:17:27.569Z,7.60
2023-04-17T19:19:55.426Z,7.60
2023-04-17T19:22:23.293Z,7.50
2023-04-17T19:24:52.761Z,7.50
2023-04-17T19:27:21.378Z,7.60
2023-04-17T19:29:49.184Z,7.60
2023-04-17T19:32:18.537Z,7.70
2023-04-17T19:34:46.480Z,7.70
2023-04-17T19:37:14.441Z,7.70
2023-04-17T19:39:42.300Z,7.70
2023-04-17T19:42:10.252Z,7.80
2023-04-17T19:44:38.099Z,7.80
2023-04-17T19:47:05.946Z,7.80
2023-04-17T19:49:35.152Z,7.80
2023-04-17T19:52:03.065Z,7.80
2023-04-17T19:54:30.902Z,7.90
2023-04-17T19:56:58.772Z,7.90
2023-04-17T19:59:26.649Z,7.90
2023-04-17T20:01:54.641Z,8.00
2023-04-17T20:04:22.775Z,8.00
2023-04-17T20:06:52.227Z,8.00
2023-04-17T20:09:20.207Z,7.90
2023-04-17T20:11:48.562Z,7.90
2023-04-17T20:14:19.346Z,7.80
2023-04-17T20:16:49.978Z,7.80
2023-04-17T20:19:17.959Z,7.70
2023-04-17T20:21:46.794Z,7.70
2023-04-17T20:24:16.648Z,7.80
2023-04-17T20:26:45.060Z,7.70
2023-04-17T20:29:13.206Z,7.70
2023-04-17T20:31:41.333Z,7.60
2023-04-17T20:34:09.243Z,7.70
2023-04-17T20:36:37.089Z,7.60
2023-04-17T20:39:05.510Z,7.70
2023-04-17T20:41:34.781Z,7.70
2023-04-17T20:44:02.724Z,7.70
2023-04-17T20:46:31.546Z,7.80
2023-04-17T20:48:59.481Z,7.70
2023-04-17T20:51:27.584Z,7.70
2023-04-17T20:53:56.272Z,7.80
2023-04-17T20:56:24.514Z,7.80
2023-04-17T20:58:53.752Z,7.80
2023-04-17T21:01:21.720Z,7.80
2023-04-17T21:03:49.592Z,7.80
2023-04-17T21:06:17.645Z,7.80
2023-04-17T21:08:45.574Z,7.80
2023-04-17T21:11:13.521Z,7.80
2023-04-17T21:13:41.348Z,7.80
2023-04-17T21:16:12.579Z,7.80
2023-04-17T21:18:40.876Z,7.90
2023-04-17T21:21:08.717Z,7.80
2023-04-17T21:23:36.599Z,7.80
2023-04-17T21:26:04.800Z,7.80
2023-04-17T21:28:32.656Z,7.80
2023-04-17T21:31:00.589Z,7.80
2023-04-17T21:33:29.792Z,7.80
2023-04-17T21:35:57.665Z,7.80
2023-04-17T21:38:26.452Z,7.80
2023-04-17T21:40:54.359Z,7.60
2023-04-17T21:43:22.179Z,7.60
2023-04-17T21:45:50.886Z,7.50
2023-04-17T21:48:18.790Z,7.50
2023-04-17T21:50:48.399Z,7.50
2023-04-17T21:53:16.221Z,7.50
2023-04-17T21:55:44.124Z,7.40
2023-04-17T21:58:11.924Z,7.40
2023-04-17T22:00:39.863Z,7.40
2023-04-17T22:03:07.749Z,7.30
2023-04-17T22:05:36.149Z,7.30
2023-04-17T22:08:05.404Z,7.30
2023-04-17T22:10:33.464Z,7.30
2023-04-17T22:13:01.295Z,7.30
2023-04-17T22:15:29.274Z,7.20
2023-04-17T22:17:58.692Z,7.20
2023-04-17T22:20:26.833Z,7.30
2023-04-17T22:22:55.153Z,7.20
2023-04-17T22:25:24.628Z,7.20
2023-04-17T22:27:52.476Z,7.10
2023-04-17T22:30:20.610Z,7.10
2023-04-17T22:32:48.747Z,7.10
2023-04-17T22:35:16.552Z,7.10
2023-04-17T22:37:44.553Z,7.10
2023-04-17T22:40:13.563Z,7.10
2023-04-17T22:42:43.167Z,7.20
2023-04-17T22:45:11.299Z,7.10
2023-04-17T22:47:39.098Z,7.20
2023-04-17T22:50:08.153Z,7.10
2023-04-17T22:52:36.256Z,7.10
2023-04-17T22:55:04.323Z,7.10
2023-04-17T22:57:32.128Z,7.00
2023-04-17T23:00:01.337Z,7.00
2023-04-17T23:02:29.298Z,7.00
2023-04-17T23:04:57.323Z,7.00
2023-04-17T23:07:25.168Z,6.90
2023-04-17T23:09:53.073Z,6.90
2023-04-17T23:12:21.105Z,6.90
2023-04-17T23:14:48.932Z,6.90
2023-04-17T23:17:18.151Z,6.90
2023-04-17T23:19:46.327Z,6.90
2023-04-17T23:22:14.106Z,6.90
2023-04-17T23:24:42.101Z,6.80
2023-04-17T23:27:09.928Z,6.80
2023-04-17T23:29:37.814Z,6.80
2023-04-17T23:32:07.636Z,6.80
2023-04-17T23:34:37.406Z,6.80
2023-04-17T23:37:05.371Z,6.80
2023-04-17T23:39:33.155Z,6.70
2023-04-17T23:42:06.889Z,6.70
2023-04-17T23:44:34.852Z,6.70
2023-04-17T23:47:04.344Z,6.70
2023-04-17T23:49:32.342Z,6.60
2023-04-17T23:52:01.470Z,6.60
2023-04-17T23:54:30.373Z,6.60
2023-04-17T23:56:58.272Z,6.60
2023-04-17T23:59:26.136Z,6.60
